Time;durP1;ratioP1;P1;durP2;ratioP2;P2;SDS_P1;SDS_P2;PMS_P1;PMS_P2;Temp;Humidity;BMP_temperature;BMP_pressure;BME280_temperature;BME280_humidity;BME280_pressure;Samples;Min_cycle;Max_cycle;Signal;HPM_P1;HPM_P2
2021/06/26 00:02:20;;;;;;;4.70;4.40;;;20.90;99.90;;;;;;5108737;28;20571;-75
2021/06/26 00:04:46;;;;;;;5.17;4.70;;;20.90;99.90;;;;;;5108534;28;20230;-75
2021/06/26 00:07:13;;;;;;;4.70;4.40;;;20.90;99.90;;;;;;5108872;28;20609;-75
2021/06/26 00:09:40;;;;;;;5.63;5.17;;;20.90;99.90;;;;;;5108402;28;20206;-75
2021/06/26 00:12:07;;;;;;;5.77;4.97;;;20.90;99.90;;;;;;5108770;28;20285;-75
2021/06/26 00:14:34;;;;;;;5.03;4.63;;;20.80;99.90;;;;;;5108209;28;20693;-75
2021/06/26 00:17:00;;;;;;;4.57;4.27;;;20.80;99.90;;;;;;5108294;28;20236;-75
2021/06/26 00:19:28;;;;;;;4.73;4.33;;;20.80;99.90;;;;;;5108366;28;20209;-75
2021/06/26 00:21:55;;;;;;;4.90;4.50;;;20.80;99.90;;;;;;5108749;28;20205;-75
2021/06/26 00:24:22;;;;;;;4.97;4.67;;;20.80;99.90;;;;;;5108812;28;20268;-75
2021/06/26 00:26:50;;;;;;;5.17;4.67;;;20.80;99.90;;;;;;5108411;28;20202;-75
2021/06/26 00:29:16;;;;;;;4.10;3.83;;;20.80;99.90;;;;;;5108687;28;20206;-75
2021/06/26 00:31:43;;;;;;;5.97;4.50;;;20.70;99.90;;;;;;5108351;28;20210;-75
2021/06/26 00:34:09;;;;;;;4.73;4.30;;;20.70;99.90;;;;;;5107713;28;20613;-76
2021/06/26 00:36:37;;;;;;;4.67;4.37;;;20.60;99.90;;;;;;5108448;28;20202;-75
2021/06/26 00:39:05;;;;;;;5.50;5.00;;;20.60;99.90;;;;;;5108416;28;20226;-75
2021/06/26 00:41:32;;;;;;;4.87;4.53;;;20.60;99.90;;;;;;5108018;28;20206;-75
2021/06/26 00:43:58;;;;;;;4.70;4.40;;;20.50;99.90;;;;;;5108203;28;20612;-75
2021/06/26 00:46:25;;;;;;;5.03;4.73;;;20.50;99.90;;;;;;5108102;28;20607;-75
2021/06/26 00:48:51;;;;;;;5.50;5.10;;;20.50;99.90;;;;;;5108245;28;20206;-75
2021/06/26 00:51:18;;;;;;;5.20;4.80;;;20.50;99.90;;;;;;5108764;28;20668;-75
2021/06/26 00:53:46;;;;;;;5.27;4.87;;;20.40;99.90;;;;;;5112314;28;20238;-75
2021/06/26 00:56:13;;;;;;;5.67;5.30;;;20.40;99.90;;;;;;5111765;28;20210;-75
2021/06/26 00:58:40;;;;;;;5.10;4.80;;;20.30;99.90;;;;;;5112188;28;20202;-75
2021/06/26 01:01:09;;;;;;;5.37;4.97;;;20.30;99.90;;;;;;5112203;28;20241;-75
2021/06/26 01:03:35;;;;;;;5.63;5.13;;;20.30;99.90;;;;;;5111685;28;20256;-75
2021/06/26 01:06:02;;;;;;;5.57;5.17;;;20.20;99.90;;;;;;5108848;27;20696;-75
2021/06/26 01:08:28;;;;;;;5.63;5.23;;;20.20;99.90;;;;;;5095742;28;20225;-75
2021/06/26 01:10:56;;;;;;;6.00;5.10;;;20.20;99.90;;;;;;5098820;28;20202;-75
2021/06/26 01:13:23;;;;;;;5.87;5.40;;;20.10;99.90;;;;;;5102380;28;20736;-76
2021/06/26 01:15:51;;;;;;;5.80;5.30;;;20.10;99.90;;;;;;5099757;27;20203;-76
2021/06/26 01:18:18;;;;;;;6.17;5.47;;;20.10;99.90;;;;;;5101519;28;20232;-77
2021/06/26 01:20:44;;;;;;;5.37;4.97;;;20.00;99.90;;;;;;5101782;28;20199;-75
2021/06/26 01:23:13;;;;;;;5.50;4.97;;;20.00;99.90;;;;;;5095241;28;20214;-75
2021/06/26 01:25:40;;;;;;;4.97;4.40;;;20.00;99.90;;;;;;5094992;28;20230;-75
2021/06/26 01:28:07;;;;;;;5.40;5.00;;;19.90;99.90;;;;;;5091103;28;20609;-75
2021/06/26 01:30:35;;;;;;;7.03;5.37;;;19.90;99.90;;;;;;5090599;28;20676;-75
2021/06/26 01:33:02;;;;;;;5.80;5.40;;;19.80;99.90;;;;;;5091069;28;20300;-75
2021/06/26 01:35:29;;;;;;;5.17;4.77;;;19.80;99.90;;;;;;5090997;28;20202;-75
2021/06/26 01:37:56;;;;;;;5.60;5.10;;;19.70;99.90;;;;;;5091284;28;20230;-75
2021/06/26 01:40:26;;;;;;;5.17;4.77;;;19.70;99.90;;;;;;5091176;28;20210;-75
2021/06/26 01:42:54;;;;;;;5.57;5.13;;;19.70;99.90;;;;;;5091286;28;20248;-75
2021/06/26 01:45:22;;;;;;;6.50;5.53;;;19.60;99.90;;;;;;5090952;28;20232;-75
2021/06/26 01:47:50;;;;;;;6.30;5.80;;;19.60;99.90;;;;;;5089596;28;20195;-75
2021/06/26 01:50:18;;;;;;;5.67;5.17;;;19.60;99.90;;;;;;5090013;28;20615;-75
2021/06/26 01:52:45;;;;;;;6.43;5.23;;;19.50;99.90;;;;;;5090860;28;20231;-75
2021/06/26 01:55:13;;;;;;;5.87;5.47;;;19.50;99.90;;;;;;5091267;28;20230;-75
2021/06/26 01:57:41;;;;;;;5.97;5.50;;;19.50;99.90;;;;;;5090472;28;20582;-75
2021/06/26 02:00:09;;;;;;;6.00;5.50;;;19.50;99.90;;;;;;5090751;28;20611;-75
2021/06/26 02:02:35;;;;;;;5.50;5.10;;;19.40;99.90;;;;;;5089933;28;20560;-75
2021/06/26 02:05:02;;;;;;;6.43;5.83;;;19.50;99.90;;;;;;5090221;28;20227;-75
2021/06/26 02:07:28;;;;;;;5.43;5.03;;;19.40;99.90;;;;;;5090720;28;20264;-75
2021/06/26 02:09:55;;;;;;;5.30;5.00;;;19.30;99.90;;;;;;5090683;28;20211;-75
2021/06/26 02:12:22;;;;;;;5.87;5.43;;;19.30;99.90;;;;;;5090516;28;20608;-75
2021/06/26 02:14:52;;;;;;;5.90;5.50;;;19.30;99.90;;;;;;5090680;28;20653;-75
2021/06/26 02:17:19;;;;;;;5.73;5.20;;;19.30;99.90;;;;;;5090580;28;20235;-75
2021/06/26 02:19:45;;;;;;;5.73;5.07;;;19.30;99.90;;;;;;5090481;28;20260;-75
2021/06/26 02:22:12;;;;;;;5.30;4.80;;;19.20;99.90;;;;;;5090526;28;20211;-74
2021/06/26 02:24:39;;;;;;;5.50;5.00;;;19.20;99.90;;;;;;5090201;28;20260;-74
2021/06/26 02:27:05;;;;;;;5.47;4.90;;;19.20;99.90;;;;;;5090320;28;20233;-75
2021/06/26 02:29:32;;;;;;;6.87;5.20;;;19.10;99.90;;;;;;5090229;28;20256;-74
2021/06/26 02:32:00;;;;;;;5.73;5.33;;;19.10;99.90;;;;;;5089836;28;20661;-74
2021/06/26 02:34:27;;;;;;;6.10;5.70;;;19.10;99.90;;;;;;5089924;28;20241;-75
2021/06/26 02:36:54;;;;;;;5.87;5.47;;;19.10;99.90;;;;;;5089956;28;20211;-75
2021/06/26 02:39:21;;;;;;;5.70;5.20;;;19.00;99.90;;;;;;5090217;28;20693;-74
2021/06/26 02:41:47;;;;;;;6.23;5.73;;;19.00;99.90;;;;;;5089829;28;20203;-74
2021/06/26 02:44:14;;;;;;;6.57;5.97;;;19.00;99.90;;;;;;5089950;28;20257;-75
2021/06/26 02:46:40;;;;;;;6.90;6.30;;;19.00;99.90;;;;;;5089879;28;20264;-75
2021/06/26 02:49:08;;;;;;;6.00;5.60;;;19.00;99.90;;;;;;5089829;28;20199;-74
2021/06/26 02:51:35;;;;;;;6.70;6.17;;;19.00;99.90;;;;;;5089828;28;20211;-74
2021/06/26 02:54:02;;;;;;;5.93;5.50;;;18.90;99.90;;;;;;5089745;28;20634;-75
2021/06/26 02:56:28;;;;;;;6.80;6.23;;;18.90;99.90;;;;;;5089482;28;20238;-74
2021/06/26 02:58:55;;;;;;;6.27;5.80;;;18.80;99.90;;;;;;5102825;27;20206;-74
2021/06/26 03:01:22;;;;;;;6.53;5.83;;;18.80;99.90;;;;;;5109405;28;20735;-74
2021/06/26 03:03:48;;;;;;;6.70;6.03;;;18.70;99.90;;;;;;5109441;28;20980;-73
2021/06/26 03:06:16;;;;;;;5.93;5.43;;;18.70;99.90;;;;;;5109850;28;20206;-73
2021/06/26 03:08:43;;;;;;;5.87;5.20;;;18.70;99.90;;;;;;5109721;28;20218;-73
2021/06/26 03:11:10;;;;;;;6.80;6.30;;;18.70;99.90;;;;;;5109716;28;20260;-73
2021/06/26 03:13:36;;;;;;;7.10;5.97;;;18.70;99.90;;;;;;5109398;28;20286;-73
2021/06/26 03:16:03;;;;;;;6.30;5.83;;;18.70;99.90;;;;;;5108866;28;20206;-73
2021/06/26 03:18:30;;;;;;;6.70;6.00;;;18.70;99.90;;;;;;5109593;28;20253;-73
2021/06/26 03:20:56;;;;;;;6.70;6.20;;;18.70;99.90;;;;;;5109349;28;20251;-73
2021/06/26 03:23:24;;;;;;;6.50;5.90;;;18.60;99.90;;;;;;5109599;28;20312;-73
2021/06/26 03:25:51;;;;;;;6.27;5.77;;;18.60;99.90;;;;;;5109388;28;20202;-73
2021/06/26 03:28:17;;;;;;;6.57;6.07;;;18.60;99.90;;;;;;5109408;28;20247;-73
2021/06/26 03:30:44;;;;;;;7.60;6.23;;;18.50;99.90;;;;;;5109345;28;20210;-73
2021/06/26 03:33:11;;;;;;;6.93;6.23;;;18.40;99.90;;;;;;5109334;28;20337;-73
2021/06/26 03:35:38;;;;;;;6.23;5.83;;;18.40;99.90;;;;;;5108815;28;20301;-72
2021/06/26 03:38:04;;;;;;;6.23;5.77;;;18.40;99.90;;;;;;5109186;27;20263;-72
2021/06/26 03:40:32;;;;;;;6.70;6.20;;;18.40;99.90;;;;;;5109293;28;20261;-72
2021/06/26 03:42:59;;;;;;;6.33;5.73;;;18.40;99.90;;;;;;5109010;28;20210;-72
2021/06/26 03:45:26;;;;;;;6.30;5.83;;;18.50;99.90;;;;;;5109287;27;20213;-72
2021/06/26 03:47:52;;;;;;;7.27;6.00;;;18.50;99.90;;;;;;5109044;28;20206;-74
2021/06/26 03:50:19;;;;;;;6.13;5.73;;;18.50;99.90;;;;;;5109163;28;20601;-74
2021/06/26 03:52:46;;;;;;;6.37;5.87;;;18.50;99.90;;;;;;5108969;28;20210;-74
2021/06/26 03:55:13;;;;;;;7.03;6.50;;;18.50;99.90;;;;;;5109012;28;20206;-74
2021/06/26 03:57:41;;;;;;;6.50;5.97;;;18.50;99.90;;;;;;5108520;28;20241;-74
2021/06/26 04:00:09;;;;;;;6.40;5.90;;;18.50;99.90;;;;;;5109077;28;20206;-74
2021/06/26 04:02:35;;;;;;;6.10;5.60;;;18.50;99.90;;;;;;5108724;28;20208;-74
2021/06/26 04:05:03;;;;;;;6.90;6.40;;;18.50;99.90;;;;;;5108782;28;20213;-73
2021/06/26 04:07:29;;;;;;;6.27;5.87;;;18.60;99.90;;;;;;5108631;28;20254;-74
2021/06/26 04:09:56;;;;;;;6.67;6.17;;;18.60;99.90;;;;;;5108970;28;20275;-73
2021/06/26 04:12:23;;;;;;;8.77;6.50;;;18.70;99.90;;;;;;5108697;28;20254;-73
2021/06/26 04:14:51;;;;;;;6.53;6.03;;;18.70;99.90;;;;;;5108551;28;20441;-73
2021/06/26 04:17:18;;;;;;;6.73;6.13;;;18.70;99.90;;;;;;5108630;28;20656;-74
2021/06/26 04:19:44;;;;;;;6.83;6.33;;;18.70;99.90;;;;;;5108538;28;20407;-74
2021/06/26 04:22:11;;;;;;;7.03;6.43;;;18.80;99.90;;;;;;5108727;28;20202;-74
2021/06/26 04:24:38;;;;;;;7.60;7.10;;;18.80;99.90;;;;;;5108636;28;20202;-75
2021/06/26 04:27:06;;;;;;;7.73;7.00;;;18.80;99.90;;;;;;5110945;28;20239;-75
2021/06/26 04:29:32;;;;;;;10.63;6.93;;;18.80;99.90;;;;;;5112839;28;20206;-75
2021/06/26 04:32:00;;;;;;;7.60;7.00;;;18.90;99.90;;;;;;5112926;28;20210;-73
2021/06/26 04:34:27;;;;;;;11.63;6.53;;;18.90;99.90;;;;;;5112436;28;20691;-73
2021/06/26 04:36:54;;;;;;;7.40;6.80;;;19.00;99.90;;;;;;5112813;28;20318;-74
2021/06/26 04:39:21;;;;;;;6.70;6.17;;;19.00;99.90;;;;;;5112956;28;20279;-74
2021/06/26 04:41:47;;;;;;;9.63;7.40;;;19.00;99.90;;;;;;5112614;28;20206;-74
2021/06/26 04:44:14;;;;;;;7.27;6.77;;;19.00;99.90;;;;;;5112794;28;20508;-74
2021/06/26 04:46:42;;;;;;;7.40;6.90;;;19.10;99.90;;;;;;5112629;28;20202;-75
2021/06/26 04:49:11;;;;;;;6.97;6.27;;;19.10;99.90;;;;;;5112176;28;20733;-75
2021/06/26 04:51:38;;;;;;;7.63;6.90;;;19.10;99.90;;;;;;5112626;28;20198;-74
2021/06/26 04:54:05;;;;;;;10.17;7.50;;;19.20;99.90;;;;;;5112316;28;20783;-74
2021/06/26 04:56:32;;;;;;;7.13;6.57;;;19.20;99.90;;;;;;5112205;28;20230;-74
2021/06/26 04:58:59;;;;;;;7.40;6.87;;;19.20;99.90;;;;;;5112393;28;20202;-74
2021/06/26 05:01:25;;;;;;;6.77;6.10;;;19.20;99.90;;;;;;5112460;28;20214;-75
2021/06/26 05:03:52;;;;;;;7.20;6.60;;;19.20;99.90;;;;;;5112203;28;20226;-74
2021/06/26 05:06:20;;;;;;;8.83;7.90;;;19.20;99.90;;;;;;5112263;28;20202;-74
2021/06/26 05:08:47;;;;;;;7.57;6.83;;;19.30;99.90;;;;;;5112137;28;20289;-74
2021/06/26 05:11:13;;;;;;;12.13;7.97;;;19.30;99.90;;;;;;5111856;28;20741;-75
2021/06/26 05:13:40;;;;;;;8.07;7.27;;;19.30;99.90;;;;;;5112095;28;20279;-74
2021/06/26 05:16:06;;;;;;;7.87;7.17;;;19.30;99.90;;;;;;5112048;28;20246;-75
2021/06/26 05:18:33;;;;;;;8.03;7.40;;;19.40;99.90;;;;;;5112177;28;20209;-75
2021/06/26 05:21:00;;;;;;;8.70;8.00;;;19.50;99.90;;;;;;5111991;28;20251;-76
2021/06/26 05:23:28;;;;;;;7.83;7.13;;;19.50;99.90;;;;;;5112017;28;20221;-75
2021/06/26 05:25:54;;;;;;;7.97;7.10;;;19.50;99.90;;;;;;5111869;28;20263;-75
2021/06/26 05:28:24;;;;;;;8.40;7.67;;;19.60;99.90;;;;;;5111929;28;20217;-76
2021/06/26 05:30:50;;;;;;;9.30;8.37;;;19.60;99.90;;;;;;5111376;28;20656;-76
2021/06/26 05:33:17;;;;;;;9.37;8.47;;;19.50;99.90;;;;;;5111746;28;20206;-75
2021/06/26 05:35:45;;;;;;;8.03;7.37;;;19.50;99.90;;;;;;5111454;28;20609;-75
2021/06/26 05:38:12;;;;;;;8.30;7.60;;;19.50;99.90;;;;;;5110361;28;20475;-75
2021/06/26 05:40:40;;;;;;;8.43;7.83;;;19.50;99.90;;;;;;5111727;28;20202;-75
2021/06/26 05:43:07;;;;;;;8.73;7.80;;;19.50;99.90;;;;;;5111506;28;20593;-76
2021/06/26 05:45:34;;;;;;;8.47;7.83;;;19.60;99.90;;;;;;5111399;28;20725;-75
2021/06/26 05:48:01;;;;;;;9.70;8.23;;;19.60;99.90;;;;;;5111246;28;20206;-75
2021/06/26 05:50:27;;;;;;;8.73;7.50;;;19.50;99.90;;;;;;5111520;27;20205;-75
2021/06/26 05:52:55;;;;;;;9.30;8.30;;;19.60;99.90;;;;;;5111158;27;20583;-75
2021/06/26 05:55:23;;;;;;;9.50;8.43;;;19.70;99.90;;;;;;5111081;28;20377;-75
2021/06/26 05:57:51;;;;;;;9.20;8.33;;;19.60;99.90;;;;;;5110812;28;20234;-76
2021/06/26 06:00:20;;;;;;;8.37;7.57;;;19.60;99.90;;;;;;5111066;28;20579;-76
2021/06/26 06:02:48;;;;;;;7.90;7.10;;;19.60;99.90;;;;;;5111124;28;20229;-76
2021/06/26 06:05:15;;;;;;;8.50;7.70;;;19.60;99.90;;;;;;5111064;27;20358;-76
2021/06/26 06:07:43;;;;;;;8.23;7.20;;;19.70;99.90;;;;;;5110885;28;20665;-75
2021/06/26 06:10:12;;;;;;;7.67;7.10;;;19.70;99.90;;;;;;5111285;28;20210;-76
2021/06/26 06:12:40;;;;;;;7.57;6.90;;;19.70;99.90;;;;;;5111109;28;20255;-76
2021/06/26 06:15:10;;;;;;;7.27;6.70;;;19.70;99.90;;;;;;5110582;27;20275;-76
2021/06/26 06:17:37;;;;;;;7.30;6.70;;;19.80;99.90;;;;;;5110804;28;20633;-75
2021/06/26 06:20:07;;;;;;;7.73;7.13;;;19.80;99.90;;;;;;5110856;28;20202;-76
2021/06/26 06:22:34;;;;;;;8.00;7.37;;;19.80;99.90;;;;;;5110611;27;20558;-75
2021/06/26 06:25:01;;;;;;;8.10;7.43;;;19.70;99.90;;;;;;5110526;28;20728;-76
2021/06/26 06:27:27;;;;;;;8.10;7.40;;;19.70;99.90;;;;;;5110902;28;20258;-76
2021/06/26 06:29:55;;;;;;;8.07;7.37;;;19.60;99.90;;;;;;5110667;28;20206;-75
2021/06/26 06:32:23;;;;;;;7.90;7.30;;;19.70;99.90;;;;;;5110720;28;20206;-76
2021/06/26 06:34:50;;;;;;;8.03;7.43;;;19.60;99.90;;;;;;5110445;28;20240;-76
2021/06/26 06:37:17;;;;;;;8.63;7.83;;;19.60;99.90;;;;;;5110822;28;20279;-75
2021/06/26 06:39:44;;;;;;;7.63;7.03;;;19.70;99.90;;;;;;5109960;28;20704;-76
2021/06/26 06:42:11;;;;;;;7.83;7.13;;;19.70;99.90;;;;;;5110658;28;20210;-76
2021/06/26 06:44:37;;;;;;;7.63;6.93;;;19.70;99.90;;;;;;5110359;28;20206;-73
2021/06/26 06:47:05;;;;;;;7.83;6.63;;;19.80;99.90;;;;;;5110164;27;20252;-74
2021/06/26 06:49:32;;;;;;;6.57;6.07;;;19.80;99.90;;;;;;5109549;28;20538;-74
2021/06/26 06:51:59;;;;;;;7.40;5.30;;;19.90;99.90;;;;;;5109782;28;20237;-73
2021/06/26 06:54:26;;;;;;;5.23;4.90;;;20.00;99.90;;;;;;5110133;28;20286;-73
2021/06/26 06:56:53;;;;;;;6.20;5.60;;;20.10;99.90;;;;;;5109575;27;20716;-73
2021/06/26 06:59:20;;;;;;;6.00;5.40;;;20.10;99.90;;;;;;5110201;28;20237;-73
2021/06/26 07:01:46;;;;;;;5.07;4.77;;;20.20;99.90;;;;;;5109961;28;20255;-74
2021/06/26 07:04:13;;;;;;;4.70;4.30;;;20.30;99.90;;;;;;5109926;28;20255;-73
2021/06/26 07:06:41;;;;;;;5.90;5.20;;;20.30;99.90;;;;;;5110009;27;20210;-74
2021/06/26 07:09:08;;;;;;;5.00;4.53;;;20.40;99.90;;;;;;5109705;28;20214;-74
2021/06/26 07:11:34;;;;;;;4.80;4.50;;;20.50;99.90;;;;;;5109792;28;20217;-74
2021/06/26 07:14:01;;;;;;;5.73;5.23;;;20.50;99.90;;;;;;5109288;28;20641;-74
2021/06/26 07:16:28;;;;;;;4.63;4.27;;;20.50;99.90;;;;;;5109600;28;20565;-74
2021/06/26 07:18:54;;;;;;;3.53;3.33;;;20.60;99.90;;;;;;5109410;28;20202;-74
2021/06/26 07:21:21;;;;;;;5.77;3.70;;;20.60;99.90;;;;;;5109447;28;20733;-75
2021/06/26 07:23:49;;;;;;;4.57;4.17;;;20.70;99.90;;;;;;5109345;28;20253;-76
2021/06/26 07:26:16;;;;;;;5.77;4.67;;;20.80;99.90;;;;;;5109578;28;20249;-74
2021/06/26 07:28:46;;;;;;;5.50;4.73;;;20.80;99.90;;;;;;5109485;28;20202;-75
2021/06/26 07:31:13;;;;;;;4.63;3.80;;;20.80;99.90;;;;;;5109770;28;20229;-75
2021/06/26 07:33:40;;;;;;;4.77;4.27;;;20.80;99.90;;;;;;5109554;28;20214;-75
2021/06/26 07:36:07;;;;;;;5.50;4.87;;;20.90;99.90;;;;;;5109364;28;20214;-75
2021/06/26 07:38:34;;;;;;;4.90;4.40;;;20.90;99.90;;;;;;5108976;27;20767;-74
2021/06/26 07:41:02;;;;;;;4.40;4.20;;;21.00;99.90;;;;;;5109129;28;20247;-74
2021/06/26 07:43:28;;;;;;;4.10;3.87;;;21.10;99.90;;;;;;5109439;28;20206;-74
2021/06/26 07:45:55;;;;;;;3.90;3.67;;;21.10;99.90;;;;;;5108867;28;20198;-74
2021/06/26 07:48:21;;;;;;;6.40;4.00;;;21.10;99.90;;;;;;5109207;28;20611;-74
2021/06/26 07:50:50;;;;;;;4.53;4.13;;;21.10;99.90;;;;;;5109113;28;20202;-74
2021/06/26 07:53:17;;;;;;;3.93;3.63;;;21.20;99.90;;;;;;5109051;27;20214;-74
2021/06/26 07:55:44;;;;;;;4.73;4.33;;;21.20;99.90;;;;;;5108873;28;20229;-74
2021/06/26 07:58:11;;;;;;;5.17;4.67;;;21.30;99.90;;;;;;5108676;28;20719;-74
2021/06/26 08:00:38;;;;;;;5.07;4.33;;;21.40;99.90;;;;;;5108390;28;20695;-74
2021/06/26 08:03:05;;;;;;;5.33;4.37;;;21.50;99.90;;;;;;5108270;28;20712;-74
2021/06/26 08:05:31;;;;;;;4.20;3.90;;;21.60;99.90;;;;;;5108704;28;20255;-74
2021/06/26 08:07:58;;;;;;;4.80;4.40;;;21.60;99.90;;;;;;5108882;28;20201;-74
2021/06/26 08:10:24;;;;;;;4.20;3.85;;;21.70;99.90;;;;;;5108559;28;20209;-74
2021/06/26 08:12:51;;;;;;;4.53;4.13;;;21.80;99.80;;;;;;5108766;28;20283;-74
2021/06/26 08:15:19;;;;;;;8.57;4.17;;;21.90;99.10;;;;;;5108581;28;20695;-75
2021/06/26 08:17:46;;;;;;;6.05;4.28;;;22.00;98.70;;;;;;5108789;28;20213;-74
2021/06/26 08:20:13;;;;;;;5.33;3.87;;;22.10;98.90;;;;;;5108620;28;20202;-75
2021/06/26 08:22:40;;;;;;;4.35;4.05;;;22.20;98.60;;;;;;5108576;28;20612;-75
2021/06/26 08:25:08;;;;;;;4.22;3.90;;;22.20;98.40;;;;;;5108574;28;20213;-75
2021/06/26 08:27:35;;;;;;;4.00;3.58;;;22.10;98.60;;;;;;5108771;28;20201;-75
2021/06/26 08:30:01;;;;;;;3.75;3.08;;;22.10;98.70;;;;;;5108283;28;20202;-75
2021/06/26 08:32:29;;;;;;;3.75;3.45;;;22.00;98.90;;;;;;5108418;28;20565;-74
2021/06/26 08:34:56;;;;;;;3.73;3.43;;;22.00;99.10;;;;;;5108292;28;20278;-75
2021/06/26 08:37:22;;;;;;;3.88;3.58;;;22.00;98.50;;;;;;5108357;28;20936;-74
2021/06/26 08:39:49;;;;;;;3.50;3.22;;;22.00;98.80;;;;;;5108632;28;20212;-74
2021/06/26 08:42:18;;;;;;;3.27;3.07;;;22.00;99.00;;;;;;5108424;28;20211;-74
2021/06/26 08:44:48;;;;;;;3.80;3.50;;;22.00;99.10;;;;;;5108587;28;20205;-74
2021/06/26 08:47:16;;;;;;;3.75;3.45;;;22.10;98.90;;;;;;5108362;28;20194;-74
2021/06/26 08:49:46;;;;;;;4.00;3.70;;;22.30;97.90;;;;;;5108537;28;20202;-75
2021/06/26 08:52:13;;;;;;;4.20;3.90;;;22.40;97.40;;;;;;5105811;28;20198;-73
2021/06/26 08:54:39;;;;;;;3.83;3.63;;;22.60;96.90;;;;;;5098867;28;20250;-72
2021/06/26 08:57:06;;;;;;;3.72;3.47;;;22.60;96.70;;;;;;5095640;28;20226;-72
2021/06/26 08:59:33;;;;;;;4.10;3.90;;;22.70;96.00;;;;;;5100896;28;20261;-73
2021/06/26 09:02:01;;;;;;;3.70;3.40;;;22.70;95.30;;;;;;5097297;28;20198;-74
2021/06/26 09:04:27;;;;;;;3.50;3.30;;;22.80;95.30;;;;;;5087915;28;20670;-74
2021/06/26 09:06:56;;;;;;;3.70;3.50;;;22.70;95.10;;;;;;5095583;28;20586;-74
2021/06/26 09:09:30;;;;;;;3.60;3.38;;;22.70;93.40;;;;;;5106259;28;20247;-73
2021/06/26 09:12:02;;;;;;;3.63;3.30;;;22.60;93.70;;;;;;5106698;28;20221;-73
2021/06/26 09:14:28;;;;;;;3.92;3.00;;;22.60;93.80;;;;;;5106438;28;20198;-73
2021/06/26 09:16:55;;;;;;;4.13;3.80;;;22.60;94.20;;;;;;5094284;28;20198;-73
2021/06/26 09:19:22;;;;;;;17.23;5.18;;;22.60;94.80;;;;;;5089171;28;20203;-73
2021/06/26 09:21:59;;;;;;;3.80;3.60;;;22.60;94.60;;;;;;5091512;28;20285;-74
2021/06/26 09:24:28;;;;;;;4.10;3.80;;;22.80;94.70;;;;;;5089284;28;20195;-73
2021/06/26 09:26:57;;;;;;;4.95;4.60;;;22.80;94.60;;;;;;5088747;28;20303;-73
2021/06/26 09:29:24;;;;;;;4.30;4.00;;;22.90;93.40;;;;;;5088823;28;20234;-73
2021/06/26 09:31:52;;;;;;;4.50;4.20;;;22.90;93.30;;;;;;5088726;28;20283;-74
2021/06/26 09:34:19;;;;;;;3.78;3.53;;;22.90;93.60;;;;;;5089030;28;20211;-73
2021/06/26 09:36:47;;;;;;;4.35;3.58;;;22.90;94.30;;;;;;5088738;28;20207;-74
2021/06/26 09:39:18;;;;;;;4.95;3.40;;;23.00;95.20;;;;;;5088974;28;20241;-73
2021/06/26 09:41:50;;;;;;;3.55;3.20;;;23.10;95.10;;;;;;5091735;28;20278;-73
2021/06/26 09:44:17;;;;;;;3.80;3.47;;;23.10;94.50;;;;;;5091399;28;20198;-74
2021/06/26 09:46:47;;;;;;;3.83;3.50;;;23.20;94.50;;;;;;5104014;28;20286;-75
2021/06/26 09:49:14;;;;;;;10.35;4.60;;;23.40;93.70;;;;;;5109142;28;20256;-74
2021/06/26 09:51:41;;;;;;;5.88;3.10;;;23.50;94.40;;;;;;5109752;28;20206;-74
2021/06/26 09:54:09;;;;;;;2.90;2.70;;;23.80;94.60;;;;;;5109219;28;20617;-74
2021/06/26 09:56:42;;;;;;;4.22;3.58;;;23.90;93.60;;;;;;5108826;28;20244;-74
2021/06/26 09:59:09;;;;;;;3.50;3.35;;;24.10;92.40;;;;;;5100235;27;20197;-75
2021/06/26 10:01:38;;;;;;;4.00;3.60;;;24.00;91.60;;;;;;5093069;28;20206;-73
2021/06/26 10:04:06;;;;;;;3.55;3.35;;;24.00;91.80;;;;;;5087989;28;20704;-73
2021/06/26 10:06:34;;;;;;;3.75;3.20;;;23.90;92.30;;;;;;5088108;28;20211;-73
2021/06/26 10:09:02;;;;;;;3.50;3.30;;;23.80;92.60;;;;;;5090593;28;20737;-74
2021/06/26 10:11:30;;;;;;;3.83;3.13;;;23.80;92.60;;;;;;5090800;28;20225;-74
2021/06/26 10:14:01;;;;;;;5.03;2.80;;;23.70;91.60;;;;;;5087988;28;20215;-74
2021/06/26 10:16:29;;;;;;;2.75;2.63;;;23.70;90.40;;;;;;5087493;28;20245;-74
2021/06/26 10:18:58;;;;;;;3.20;3.00;;;23.80;89.80;;;;;;5087684;28;20207;-74
2021/06/26 10:21:25;;;;;;;2.75;2.65;;;23.90;86.30;;;;;;5088060;28;20207;-74
2021/06/26 10:23:54;;;;;;;3.15;2.60;;;23.90;86.30;;;;;;5087523;28;20203;-74
2021/06/26 10:26:20;;;;;;;2.33;2.13;;;24.00;85.30;;;;;;5088071;28;20236;-74
2021/06/26 10:28:49;;;;;;;1.90;1.80;;;24.10;81.80;;;;;;5088057;28;20210;-74
2021/06/26 10:31:27;;;;;;;2.42;2.33;;;24.20;81.50;;;;;;5087906;28;20217;-74
2021/06/26 10:33:54;;;;;;;2.10;2.00;;;24.20;80.70;;;;;;5093626;28;20232;-74
2021/06/26 10:36:21;;;;;;;3.83;2.10;;;24.40;78.60;;;;;;5094458;28;20251;-74
2021/06/26 10:38:47;;;;;;;2.00;1.90;;;24.60;78.90;;;;;;5095588;28;20279;-74
2021/06/26 10:41:19;;;;;;;9.27;2.10;;;24.70;78.70;;;;;;5097457;28;20291;-73
2021/06/26 10:43:56;;;;;;;3.63;2.00;;;24.80;79.20;;;;;;5098089;28;20199;-73
2021/06/26 10:46:24;;;;;;;4.93;2.20;;;24.90;75.90;;;;;;5097737;28;20212;-74
2021/06/26 10:49:01;;;;;;;2.15;2.05;;;24.90;73.20;;;;;;5098963;28;20586;-74
2021/06/26 10:51:33;;;;;;;1.92;1.80;;;25.00;73.90;;;;;;5108270;28;20198;-76
2021/06/26 10:54:10;;;;;;;1.98;1.88;;;25.20;76.90;;;;;;5108177;28;20628;-74
2021/06/26 10:56:36;;;;;;;1.95;1.83;;;25.40;76.30;;;;;;5107831;28;20245;-74
2021/06/26 10:59:10;;;;;;;2.40;2.30;;;25.50;77.00;;;;;;5087522;28;20256;-74
2021/06/26 11:01:38;;;;;;;2.30;2.20;;;25.40;75.60;;;;;;5088527;28;20721;-74
2021/06/26 11:04:08;;;;;;;2.05;1.63;;;25.10;75.80;;;;;;5107773;28;20202;-74
2021/06/26 11:06:35;;;;;;;2.13;2.03;;;25.00;76.90;;;;;;5107411;28;20637;-74
2021/06/26 11:09:05;;;;;;;3.08;1.90;;;24.80;77.70;;;;;;5107408;28;20202;-74
2021/06/26 11:11:34;;;;;;;3.53;2.00;;;24.90;79.00;;;;;;5107958;28;20202;-74
2021/06/26 11:14:09;;;;;;;1.98;1.88;;;25.20;79.20;;;;;;5107459;28;20217;-75
2021/06/26 11:16:38;;;;;;;3.42;2.17;;;25.60;78.60;;;;;;5095229;28;20221;-74
2021/06/26 11:19:05;;;;;;;1.73;1.70;;;25.80;74.60;;;;;;5096201;28;20221;-74
2021/06/26 11:21:38;;;;;;;2.35;2.15;;;25.70;74.10;;;;;;5106920;28;20739;-74
2021/06/26 11:24:06;;;;;;;2.20;2.10;;;25.60;74.70;;;;;;5107393;28;20202;-74
2021/06/26 11:26:33;;;;;;;3.72;3.47;;;25.60;75.70;;;;;;5107365;28;20241;-75
2021/06/26 11:28:59;;;;;;;2.53;2.42;;;25.50;75.30;;;;;;5095832;28;20198;-76
2021/06/26 11:31:26;;;;;;;2.47;2.13;;;25.70;76.90;;;;;;5097497;28;20202;-75
2021/06/26 11:33:54;;;;;;;1.98;1.88;;;26.10;75.90;;;;;;5097119;28;20726;-74
2021/06/26 11:36:21;;;;;;;1.90;1.80;;;26.30;74.10;;;;;;5105019;28;20282;-74
2021/06/26 11:38:55;;;;;;;2.22;2.13;;;26.30;73.60;;;;;;5106429;28;20271;-73
2021/06/26 11:41:22;;;;;;;1.90;1.75;;;26.10;73.80;;;;;;5107034;28;20197;-74
2021/06/26 11:43:50;;;;;;;1.95;1.88;;;25.90;73.50;;;;;;5106681;28;20214;-75
2021/06/26 11:46:17;;;;;;;1.80;1.70;;;25.80;73.80;;;;;;5105854;28;20725;-74
2021/06/26 11:48:45;;;;;;;1.83;1.73;;;26.00;72.90;;;;;;5095183;28;20287;-74
2021/06/26 11:51:14;;;;;;;2.78;1.60;;;26.20;72.30;;;;;;5096890;28;20296;-75
2021/06/26 11:53:41;;;;;;;1.98;1.88;;;26.40;71.80;;;;;;5098636;28;20205;-74
2021/06/26 11:56:08;;;;;;;1.80;1.70;;;26.70;72.30;;;;;;5093738;28;20317;-74
2021/06/26 11:58:40;;;;;;;3.13;1.65;;;26.80;70.50;;;;;;5098910;28;20206;-75
2021/06/26 12:01:08;;;;;;;1.65;1.50;;;27.20;71.20;;;;;;5098556;28;20203;-75
2021/06/26 12:03:36;;;;;;;2.03;1.80;;;27.00;69.70;;;;;;5098763;28;20271;-75
2021/06/26 12:06:04;;;;;;;2.20;1.65;;;26.60;70.30;;;;;;5095664;28;20262;-75
2021/06/26 12:08:40;;;;;;;1.80;1.70;;;26.40;70.70;;;;;;5098070;28;20202;-75
2021/06/26 12:11:10;;;;;;;1.70;1.60;;;26.40;72.20;;;;;;5092964;28;20244;-75
2021/06/26 12:13:37;;;;;;;1.98;1.88;;;26.40;72.60;;;;;;5095634;28;20259;-75
2021/06/26 12:16:04;;;;;;;1.90;1.80;;;26.70;71.10;;;;;;5097674;28;20219;-76
2021/06/26 12:18:30;;;;;;;2.00;1.90;;;27.00;70.50;;;;;;5098066;28;20248;-75
2021/06/26 12:20:57;;;;;;;1.67;1.67;;;27.30;70.60;;;;;;5097346;28;20198;-77
2021/06/26 12:23:24;;;;;;;1.70;1.60;;;27.50;70.60;;;;;;5097984;28;20668;-75
2021/06/26 12:25:52;;;;;;;1.70;1.60;;;27.70;69.00;;;;;;5095711;28;20203;-74
2021/06/26 12:28:18;;;;;;;2.08;1.88;;;28.00;70.00;;;;;;5090421;28;20669;-75
2021/06/26 12:30:45;;;;;;;1.63;1.52;;;28.30;67.10;;;;;;5091442;28;20543;-75
2021/06/26 12:33:15;;;;;;;4.03;1.70;;;28.50;65.90;;;;;;5107435;28;20267;-75
2021/06/26 12:35:42;;;;;;;1.70;1.60;;;28.70;65.80;;;;;;5107566;28;20684;-75
2021/06/26 12:38:09;;;;;;;2.47;1.60;;;28.90;65.60;;;;;;5107363;28;20651;-76
2021/06/26 12:40:41;;;;;;;1.80;1.70;;;28.80;62.60;;;;;;5107669;28;20652;-75
2021/06/26 12:43:11;;;;;;;1.65;1.60;;;29.00;64.30;;;;;;5107664;28;20198;-75
2021/06/26 12:45:41;;;;;;;1.73;1.63;;;29.20;64.80;;;;;;5107910;28;20204;-75
2021/06/26 12:48:12;;;;;;;1.83;1.73;;;29.40;63.20;;;;;;5109529;28;20198;-75